sensor_id;sensor_type;location;lat;lon;timestamp;P1;durP1;ratioP1;P2;durP2;ratioP2
27612;SDS011;15036;48.094;-1.690;2023-02-01T00:01:46;23.02;;;5.20;;
27612;SDS011;15036;48.094;-1.690;2023-02-01T00:04:12;20.33;;;4.28;;
27612;SDS011;15036;48.094;-1.690;2023-02-01T00:06:37;26.23;;;4.72;;
27612;SDS011;15036;48.094;-1.690;2023-02-01T00:09:03;25.27;;;4.75;;
27612;SDS011;15036;48.094;-1.690;2023-02-01T00:11:28;18.92;;;4.22;;
27612;SDS011;15036;48.094;-1.690;2023-02-01T00:13:53;26.92;;;4.80;;
27612;SDS011;15036;48.094;-1.690;2023-02-01T00:16:26;26.83;;;4.97;;
27612;SDS011;15036;48.094;-1.690;2023-02-01T00:19:12;25.02;;;4.78;;
27612;SDS011;15036;48.094;-1.690;2023-02-01T00:21:39;23.95;;;5.20;;
27612;SDS011;15036;48.094;-1.690;2023-02-01T00:24:05;24.70;;;5.32;;
27612;SDS011;15036;48.094;-1.690;2023-02-01T00:28:57;19.17;;;4.47;;
27612;SDS011;15036;48.094;-1.690;2023-02-01T00:31:23;25.77;;;4.70;;
27612;SDS011;15036;48.094;-1.690;2023-02-01T00:33:49;24.10;;;5.05;;
27612;SDS011;15036;48.094;-1.690;2023-02-01T00:36:14;22.55;;;4.00;;
27612;SDS011;15036;48.094;-1.690;2023-02-01T00:38:40;24.20;;;4.38;;
27612;SDS011;15036;48.094;-1.690;2023-02-01T00:41:13;23.55;;;4.15;;
27612;SDS011;15036;48.094;-1.690;2023-02-01T00:43:40;23.40;;;4.97;;
27612;SDS011;15036;48.094;-1.690;2023-02-01T00:46:06;18.83;;;4.72;;
27612;SDS011;15036;48.094;-1.690;2023-02-01T00:48:32;25.85;;;4.40;;
27612;SDS011;15036;48.094;-1.690;2023-02-01T00:51:05;18.67;;;3.90;;
27612;SDS011;15036;48.094;-1.690;2023-02-01T00:53:32;20.83;;;4.25;;
27612;SDS011;15036;48.094;-1.690;2023-02-01T00:55:59;22.52;;;4.60;;
27612;SDS011;15036;48.094;-1.690;2023-02-01T00:58:25;23.15;;;4.07;;
27612;SDS011;15036;48.094;-1.690;2023-02-01T01:03:35;21.52;;;4.13;;
27612;SDS011;15036;48.094;-1.690;2023-02-01T01:06:04;20.88;;;4.10;;
27612;SDS011;15036;48.094;-1.690;2023-02-01T01:08:32;23.38;;;4.68;;
27612;SDS011;15036;48.094;-1.690;2023-02-01T01:10:58;19.85;;;4.63;;
27612;SDS011;15036;48.094;-1.690;2023-02-01T01:13:23;21.70;;;4.95;;
27612;SDS011;15036;48.094;-1.690;2023-02-01T01:15:49;24.40;;;4.40;;
27612;SDS011;15036;48.094;-1.690;2023-02-01T01:18:14;18.88;;;3.83;;
27612;SDS011;15036;48.094;-1.690;2023-02-01T01:20:40;25.70;;;4.68;;
27612;SDS011;15036;48.094;-1.690;2023-02-01T01:23:06;22.25;;;4.07;;
27612;SDS011;15036;48.094;-1.690;2023-02-01T01:25:32;23.80;;;4.30;;
27612;SDS011;15036;48.094;-1.690;2023-02-01T01:28:01;21.10;;;5.20;;
27612;SDS011;15036;48.094;-1.690;2023-02-01T01:30:27;20.55;;;4.10;;
27612;SDS011;15036;48.094;-1.690;2023-02-01T01:32:52;24.60;;;4.85;;
27612;SDS011;15036;48.094;-1.690;2023-02-01T01:35:18;23.35;;;4.50;;
27612;SDS011;15036;48.094;-1.690;2023-02-01T01:37:43;24.13;;;4.45;;
27612;SDS011;15036;48.094;-1.690;2023-02-01T01:40:09;19.58;;;4.45;;
27612;SDS011;15036;48.094;-1.690;2023-02-01T01:42:39;20.40;;;3.97;;
27612;SDS011;15036;48.094;-1.690;2023-02-01T01:45:06;21.15;;;4.47;;
27612;SDS011;15036;48.094;-1.690;2023-02-01T01:47:37;21.35;;;4.50;;
27612;SDS011;15036;48.094;-1.690;2023-02-01T01:50:13;19.23;;;4.32;;
27612;SDS011;15036;48.094;-1.690;2023-02-01T01:55:11;20.85;;;4.60;;
27612;SDS011;15036;48.094;-1.690;2023-02-01T01:57:38;26.15;;;4.70;;
27612;SDS011;15036;48.094;-1.690;2023-02-01T02:00:08;23.60;;;4.22;;
27612;SDS011;15036;48.094;-1.690;2023-02-01T02:02:37;19.40;;;4.05;;
27612;SDS011;15036;48.094;-1.690;2023-02-01T02:05:05;20.17;;;4.20;;
27612;SDS011;15036;48.094;-1.690;2023-02-01T02:07:33;20.85;;;4.00;;
27612;SDS011;15036;48.094;-1.690;2023-02-01T02:10:07;21.55;;;3.78;;
27612;SDS011;15036;48.094;-1.690;2023-02-01T02:12:37;23.98;;;4.25;;
27612;SDS011;15036;48.094;-1.690;2023-02-01T02:15:04;23.40;;;4.82;;
27612;SDS011;15036;48.094;-1.690;2023-02-01T02:17:44;18.73;;;4.15;;
27612;SDS011;15036;48.094;-1.690;2023-02-01T02:23:45;19.45;;;4.20;;
27612;SDS011;15036;48.094;-1.690;2023-02-01T02:26:18;20.17;;;4.40;;
27612;SDS011;15036;48.094;-1.690;2023-02-01T02:34:31;19.65;;;4.05;;
27612;SDS011;15036;48.094;-1.690;2023-02-01T02:37:06;14.38;;;3.42;;
27612;SDS011;15036;48.094;-1.690;2023-02-01T02:42:58;24.70;;;4.03;;
27612;SDS011;15036;48.094;-1.690;2023-02-01T02:46:05;20.83;;;4.45;;
27612;SDS011;15036;48.094;-1.690;2023-02-01T02:51:36;24.02;;;4.70;;
27612;SDS011;15036;48.094;-1.690;2023-02-01T02:54:28;24.67;;;4.47;;
27612;SDS011;15036;48.094;-1.690;2023-02-01T02:57:38;21.90;;;4.45;;
27612;SDS011;15036;48.094;-1.690;2023-02-01T03:00:29;21.23;;;4.40;;
27612;SDS011;15036;48.094;-1.690;2023-02-01T03:06:00;22.45;;;4.30;;
27612;SDS011;15036;48.094;-1.690;2023-02-01T03:08:30;23.05;;;4.22;;
27612;SDS011;15036;48.094;-1.690;2023-02-01T03:11:06;18.70;;;4.30;;
27612;SDS011;15036;48.094;-1.690;2023-02-01T03:13:41;20.33;;;4.38;;
27612;SDS011;15036;48.094;-1.690;2023-02-01T03:19:08;19.70;;;4.05;;
27612;SDS011;15036;48.094;-1.690;2023-02-01T03:22:08;20.17;;;3.80;;
27612;SDS011;15036;48.094;-1.690;2023-02-01T03:24:46;20.10;;;4.03;;
27612;SDS011;15036;48.094;-1.690;2023-02-01T03:30:00;20.92;;;4.60;;
27612;SDS011;15036;48.094;-1.690;2023-02-01T03:32:43;19.17;;;3.80;;
27612;SDS011;15036;48.094;-1.690;2023-02-01T03:40:38;16.73;;;3.92;;
27612;SDS011;15036;48.094;-1.690;2023-02-01T03:43:06;18.17;;;4.20;;
27612;SDS011;15036;48.094;-1.690;2023-02-01T03:45:41;22.25;;;4.30;;
27612;SDS011;15036;48.094;-1.690;2023-02-01T03:48:09;21.63;;;4.13;;
27612;SDS011;15036;48.094;-1.690;2023-02-01T03:50:38;25.58;;;4.90;;
27612;SDS011;15036;48.094;-1.690;2023-02-01T03:53:09;26.92;;;4.82;;
27612;SDS011;15036;48.094;-1.690;2023-02-01T03:55:39;19.48;;;4.20;;
27612;SDS011;15036;48.094;-1.690;2023-02-01T03:58:10;20.15;;;4.45;;
27612;SDS011;15036;48.094;-1.690;2023-02-01T04:00:39;23.95;;;4.15;;
27612;SDS011;15036;48.094;-1.690;2023-02-01T04:03:05;19.38;;;3.83;;
27612;SDS011;15036;48.094;-1.690;2023-02-01T04:05:32;19.42;;;4.72;;
27612;SDS011;15036;48.094;-1.690;2023-02-01T04:07:58;21.05;;;3.83;;
27612;SDS011;15036;48.094;-1.690;2023-02-01T04:10:24;17.25;;;3.78;;
27612;SDS011;15036;48.094;-1.690;2023-02-01T04:12:50;16.45;;;3.95;;
27612;SDS011;15036;48.094;-1.690;2023-02-01T04:15:15;17.20;;;4.20;;
27612;SDS011;15036;48.094;-1.690;2023-02-01T04:17:41;21.67;;;4.40;;
27612;SDS011;15036;48.094;-1.690;2023-02-01T04:20:07;22.17;;;3.90;;
27612;SDS011;15036;48.094;-1.690;2023-02-01T04:22:33;14.75;;;3.55;;
27612;SDS011;15036;48.094;-1.690;2023-02-01T04:24:59;16.88;;;3.72;;
27612;SDS011;15036;48.094;-1.690;2023-02-01T04:27:24;16.63;;;3.83;;
27612;SDS011;15036;48.094;-1.690;2023-02-01T04:29:50;18.52;;;3.50;;
27612;SDS011;15036;48.094;-1.690;2023-02-01T04:32:15;21.70;;;4.40;;
27612;SDS011;15036;48.094;-1.690;2023-02-01T04:34:41;15.63;;;3.33;;
27612;SDS011;15036;48.094;-1.690;2023-02-01T04:37:07;18.08;;;3.92;;
27612;SDS011;15036;48.094;-1.690;2023-02-01T04:39:32;22.17;;;4.25;;
27612;SDS011;15036;48.094;-1.690;2023-02-01T04:41:58;17.63;;;4.20;;
27612;SDS011;15036;48.094;-1.690;2023-02-01T04:44:23;22.60;;;4.25;;
27612;SDS011;15036;48.094;-1.690;2023-02-01T04:46:49;20.77;;;3.45;;
27612;SDS011;15036;48.094;-1.690;2023-02-01T04:49:14;24.13;;;3.67;;
27612;SDS011;15036;48.094;-1.690;2023-02-01T04:51:41;23.92;;;4.05;;
27612;SDS011;15036;48.094;-1.690;2023-02-01T04:54:07;21.50;;;4.22;;
27612;SDS011;15036;48.094;-1.690;2023-02-01T04:56:32;18.95;;;3.85;;
27612;SDS011;15036;48.094;-1.690;2023-02-01T04:58:59;18.55;;;4.45;;
27612;SDS011;15036;48.094;-1.690;2023-02-01T05:01:25;17.30;;;3.63;;
27612;SDS011;15036;48.094;-1.690;2023-02-01T05:03:50;18.70;;;3.55;;
27612;SDS011;15036;48.094;-1.690;2023-02-01T05:06:16;21.42;;;3.83;;
27612;SDS011;15036;48.094;-1.690;2023-02-01T05:08:42;23.67;;;4.55;;
27612;SDS011;15036;48.094;-1.690;2023-02-01T05:11:07;22.38;;;4.28;;
27612;SDS011;15036;48.094;-1.690;2023-02-01T05:13:53;21.92;;;4.10;;
27612;SDS011;15036;48.094;-1.690;2023-02-01T05:16:18;19.05;;;3.67;;
27612;SDS011;15036;48.094;-1.690;2023-02-01T05:18:44;17.42;;;3.63;;
27612;SDS011;15036;48.094;-1.690;2023-02-01T05:21:09;20.17;;;4.28;;
27612;SDS011;15036;48.094;-1.690;2023-02-01T05:23:34;15.38;;;3.50;;
27612;SDS011;15036;48.094;-1.690;2023-02-01T05:26:20;20.33;;;4.20;;
27612;SDS011;15036;48.094;-1.690;2023-02-01T05:28:45;18.25;;;3.33;;
27612;SDS011;15036;48.094;-1.690;2023-02-01T05:31:11;20.95;;;3.75;;
27612;SDS011;15036;48.094;-1.690;2023-02-01T05:33:37;23.65;;;3.88;;
27612;SDS011;15036;48.094;-1.690;2023-02-01T05:36:02;17.08;;;3.25;;
27612;SDS011;15036;48.094;-1.690;2023-02-01T05:38:28;20.17;;;3.85;;
27612;SDS011;15036;48.094;-1.690;2023-02-01T05:40:54;22.90;;;3.63;;
27612;SDS011;15036;48.094;-1.690;2023-02-01T05:43:20;22.77;;;3.67;;
27612;SDS011;15036;48.094;-1.690;2023-02-01T05:45:45;22.73;;;4.15;;
27612;SDS011;15036;48.094;-1.690;2023-02-01T05:48:11;22.98;;;4.65;;
27612;SDS011;15036;48.094;-1.690;2023-02-01T05:50:36;20.80;;;3.95;;
27612;SDS011;15036;48.094;-1.690;2023-02-01T05:53:01;29.90;;;3.90;;
27612;SDS011;15036;48.094;-1.690;2023-02-01T05:55:27;23.27;;;4.45;;
27612;SDS011;15036;48.094;-1.690;2023-02-01T05:57:52;17.52;;;4.22;;
27612;SDS011;15036;48.094;-1.690;2023-02-01T06:00:18;19.02;;;4.00;;
27612;SDS011;15036;48.094;-1.690;2023-02-01T06:02:43;18.35;;;3.50;;
27612;SDS011;15036;48.094;-1.690;2023-02-01T06:05:09;23.27;;;4.32;;
27612;SDS011;15036;48.094;-1.690;2023-02-01T06:07:34;20.50;;;3.60;;
27612;SDS011;15036;48.094;-1.690;2023-02-01T06:09:59;20.90;;;4.38;;
27612;SDS011;15036;48.094;-1.690;2023-02-01T06:12:25;27.00;;;4.80;;
27612;SDS011;15036;48.094;-1.690;2023-02-01T06:14:53;22.02;;;4.35;;
27612;SDS011;15036;48.094;-1.690;2023-02-01T06:17:18;21.83;;;4.95;;
27612;SDS011;15036;48.094;-1.690;2023-02-01T06:19:44;23.88;;;4.43;;
27612;SDS011;15036;48.094;-1.690;2023-02-01T06:22:09;17.30;;;4.03;;
27612;SDS011;15036;48.094;-1.690;2023-02-01T06:24:35;15.20;;;3.63;;
27612;SDS011;15036;48.094;-1.690;2023-02-01T06:27:01;18.92;;;4.18;;
27612;SDS011;15036;48.094;-1.690;2023-02-01T06:29:26;20.50;;;4.22;;
27612;SDS011;15036;48.094;-1.690;2023-02-01T06:31:51;21.77;;;4.13;;
27612;SDS011;15036;48.094;-1.690;2023-02-01T06:34:17;22.25;;;4.53;;
27612;SDS011;15036;48.094;-1.690;2023-02-01T06:36:43;18.17;;;3.78;;
27612;SDS011;15036;48.094;-1.690;2023-02-01T06:39:08;21.10;;;4.68;;
27612;SDS011;15036;48.094;-1.690;2023-02-01T06:41:33;25.25;;;4.65;;
27612;SDS011;15036;48.094;-1.690;2023-02-01T06:43:59;23.85;;;4.65;;
27612;SDS011;15036;48.094;-1.690;2023-02-01T06:46:25;21.38;;;4.63;;
27612;SDS011;15036;48.094;-1.690;2023-02-01T06:48:50;21.50;;;5.97;;
27612;SDS011;15036;48.094;-1.690;2023-02-01T06:51:20;22.50;;;4.50;;
27612;SDS011;15036;48.094;-1.690;2023-02-01T06:53:46;23.38;;;4.18;;
27612;SDS011;15036;48.094;-1.690;2023-02-01T06:56:11;24.20;;;5.47;;
27612;SDS011;15036;48.094;-1.690;2023-02-01T06:58:37;29.90;;;9.65;;
27612;SDS011;15036;48.094;-1.690;2023-02-01T07:01:04;28.65;;;4.30;;
27612;SDS011;15036;48.094;-1.690;2023-02-01T07:03:31;23.45;;;4.60;;
27612;SDS011;15036;48.094;-1.690;2023-02-01T07:05:56;19.23;;;4.35;;
27612;SDS011;15036;48.094;-1.690;2023-02-01T07:08:28;21.15;;;4.50;;
27612;SDS011;15036;48.094;-1.690;2023-02-01T07:10:54;19.33;;;4.80;;
27612;SDS011;15036;48.094;-1.690;2023-02-01T07:13:20;23.75;;;4.38;;
27612;SDS011;15036;48.094;-1.690;2023-02-01T07:15:45;19.20;;;4.40;;
27612;SDS011;15036;48.094;-1.690;2023-02-01T07:18:14;19.20;;;3.88;;
27612;SDS011;15036;48.094;-1.690;2023-02-01T07:20:40;20.48;;;4.97;;
27612;SDS011;15036;48.094;-1.690;2023-02-01T07:23:08;22.40;;;4.25;;
27612;SDS011;15036;48.094;-1.690;2023-02-01T07:25:35;23.15;;;4.10;;
27612;SDS011;15036;48.094;-1.690;2023-02-01T07:28:00;23.30;;;4.07;;
27612;SDS011;15036;48.094;-1.690;2023-02-01T07:30:26;23.55;;;4.45;;
27612;SDS011;15036;48.094;-1.690;2023-02-01T07:32:51;19.90;;;3.80;;
27612;SDS011;15036;48.094;-1.690;2023-02-01T07:35:16;19.33;;;3.92;;
27612;SDS011;15036;48.094;-1.690;2023-02-01T07:37:42;24.02;;;5.25;;
27612;SDS011;15036;48.094;-1.690;2023-02-01T07:40:07;20.48;;;4.10;;
27612;SDS011;15036;48.094;-1.690;2023-02-01T07:42:34;19.33;;;3.67;;
27612;SDS011;15036;48.094;-1.690;2023-02-01T07:44:59;20.27;;;3.83;;
27612;SDS011;15036;48.094;-1.690;2023-02-01T07:47:24;26.83;;;4.80;;
27612;SDS011;15036;48.094;-1.690;2023-02-01T07:49:50;24.83;;;4.97;;
27612;SDS011;15036;48.094;-1.690;2023-02-01T07:52:15;17.08;;;4.15;;
27612;SDS011;15036;48.094;-1.690;2023-02-01T07:54:40;21.70;;;4.25;;
27612;SDS011;15036;48.094;-1.690;2023-02-01T07:57:06;22.33;;;5.05;;
27612;SDS011;15036;48.094;-1.690;2023-02-01T07:59:33;22.02;;;3.92;;
27612;SDS011;15036;48.094;-1.690;2023-02-01T08:01:59;16.83;;;4.35;;
27612;SDS011;15036;48.094;-1.690;2023-02-01T08:04:24;18.38;;;4.47;;
27612;SDS011;15036;48.094;-1.690;2023-02-01T08:06:49;19.83;;;4.53;;
27612;SDS011;15036;48.094;-1.690;2023-02-01T08:09:15;24.27;;;4.65;;
27612;SDS011;15036;48.094;-1.690;2023-02-01T08:11:40;18.05;;;4.00;;
27612;SDS011;15036;48.094;-1.690;2023-02-01T08:14:06;21.80;;;4.55;;
27612;SDS011;15036;48.094;-1.690;2023-02-01T08:16:31;23.25;;;5.10;;
27612;SDS011;15036;48.094;-1.690;2023-02-01T08:19:00;22.65;;;4.28;;
27612;SDS011;15036;48.094;-1.690;2023-02-01T08:21:26;21.88;;;4.72;;
27612;SDS011;15036;48.094;-1.690;2023-02-01T08:24:01;21.52;;;4.32;;
27612;SDS011;15036;48.094;-1.690;2023-02-01T08:26:27;20.58;;;4.50;;
27612;SDS011;15036;48.094;-1.690;2023-02-01T08:28:57;22.38;;;4.30;;
27612;SDS011;15036;48.094;-1.690;2023-02-01T08:31:25;17.77;;;3.97;;
27612;SDS011;15036;48.094;-1.690;2023-02-01T08:33:52;19.33;;;3.63;;
27612;SDS011;15036;48.094;-1.690;2023-02-01T08:36:21;21.48;;;4.70;;
27612;SDS011;15036;48.094;-1.690;2023-02-01T08:38:47;22.15;;;4.47;;
27612;SDS011;15036;48.094;-1.690;2023-02-01T08:41:14;13.73;;;3.65;;
27612;SDS011;15036;48.094;-1.690;2023-02-01T08:43:42;19.63;;;4.78;;
27612;SDS011;15036;48.094;-1.690;2023-02-01T08:46:08;21.40;;;4.70;;
27612;SDS011;15036;48.094;-1.690;2023-02-01T08:48:34;22.60;;;4.10;;
27612;SDS011;15036;48.094;-1.690;2023-02-01T08:51:01;18.38;;;4.10;;
27612;SDS011;15036;48.094;-1.690;2023-02-01T08:53:28;21.60;;;4.68;;
27612;SDS011;15036;48.094;-1.690;2023-02-01T08:55:53;22.83;;;4.38;;
27612;SDS011;15036;48.094;-1.690;2023-02-01T08:58:19;27.52;;;5.43;;
27612;SDS011;15036;48.094;-1.690;2023-02-01T09:00:44;22.05;;;4.70;;
27612;SDS011;15036;48.094;-1.690;2023-02-01T09:03:10;31.90;;;4.88;;
27612;SDS011;15036;48.094;-1.690;2023-02-01T09:05:37;22.02;;;4.95;;
27612;SDS011;15036;48.094;-1.690;2023-02-01T09:08:03;20.35;;;4.10;;
27612;SDS011;15036;48.094;-1.690;2023-02-01T09:10:29;21.30;;;4.10;;
27612;SDS011;15036;48.094;-1.690;2023-02-01T09:12:54;27.60;;;4.30;;
27612;SDS011;15036;48.094;-1.690;2023-02-01T09:15:19;21.83;;;4.63;;
27612;SDS011;15036;48.094;-1.690;2023-02-01T09:17:45;26.67;;;4.82;;
27612;SDS011;15036;48.094;-1.690;2023-02-01T09:20:10;23.85;;;4.60;;
27612;SDS011;15036;48.094;-1.690;2023-02-01T09:22:36;18.52;;;4.78;;
27612;SDS011;15036;48.094;-1.690;2023-02-01T09:25:02;22.55;;;5.20;;
27612;SDS011;15036;48.094;-1.690;2023-02-01T09:27:27;21.92;;;4.88;;
27612;SDS011;15036;48.094;-1.690;2023-02-01T09:29:53;19.10;;;4.65;;
27612;SDS011;15036;48.094;-1.690;2023-02-01T09:32:19;25.45;;;4.90;;
27612;SDS011;15036;48.094;-1.690;2023-02-01T09:34:45;20.63;;;4.35;;
27612;SDS011;15036;48.094;-1.690;2023-02-01T09:37:10;20.02;;;4.30;;
27612;SDS011;15036;48.094;-1.690;2023-02-01T09:39:36;22.55;;;4.85;;
27612;SDS011;15036;48.094;-1.690;2023-02-01T09:47:31;23.80;;;5.13;;
27612;SDS011;15036;48.094;-1.690;2023-02-01T09:55:12;19.92;;;4.57;;
27612;SDS011;15036;48.094;-1.690;2023-02-01T10:00:21;24.98;;;5.00;;
27612;SDS011;15036;48.094;-1.690;2023-02-01T10:02:50;24.80;;;4.63;;
27612;SDS011;15036;48.094;-1.690;2023-02-01T10:05:17;24.67;;;5.13;;
27612;SDS011;15036;48.094;-1.690;2023-02-01T10:08:06;18.08;;;4.65;;
27612;SDS011;15036;48.094;-1.690;2023-02-01T10:10:54;24.17;;;4.90;;
27612;SDS011;15036;48.094;-1.690;2023-02-01T10:16:11;23.42;;;4.95;;
27612;SDS011;15036;48.094;-1.690;2023-02-01T10:26:24;21.67;;;4.60;;
27612;SDS011;15036;48.094;-1.690;2023-02-01T10:31:30;23.92;;;5.47;;
27612;SDS011;15036;48.094;-1.690;2023-02-01T10:34:46;18.58;;;4.40;;
27612;SDS011;15036;48.094;-1.690;2023-02-01T10:39:25;23.90;;;4.68;;
27612;SDS011;15036;48.094;-1.690;2023-02-01T10:41:51;22.70;;;4.65;;
27612;SDS011;15036;48.094;-1.690;2023-02-01T10:44:18;22.95;;;5.07;;
27612;SDS011;15036;48.094;-1.690;2023-02-01T10:46:49;19.70;;;4.47;;
27612;SDS011;15036;48.094;-1.690;2023-02-01T10:49:19;21.42;;;4.70;;
27612;SDS011;15036;48.094;-1.690;2023-02-01T10:52:03;18.75;;;4.70;;
27612;SDS011;15036;48.094;-1.690;2023-02-01T10:54:38;24.48;;;5.43;;
27612;SDS011;15036;48.094;-1.690;2023-02-01T10:57:19;17.70;;;4.30;;
27612;SDS011;15036;48.094;-1.690;2023-02-01T10:59:51;26.27;;;5.20;;
27612;SDS011;15036;48.094;-1.690;2023-02-01T11:02:23;19.17;;;5.10;;
27612;SDS011;15036;48.094;-1.690;2023-02-01T11:04:58;18.40;;;4.68;;
27612;SDS011;15036;48.094;-1.690;2023-02-01T11:07:25;18.33;;;4.45;;
27612;SDS011;15036;48.094;-1.690;2023-02-01T11:09:52;29.65;;;5.50;;
27612;SDS011;15036;48.094;-1.690;2023-02-01T11:12:33;22.15;;;5.07;;
27612;SDS011;15036;48.094;-1.690;2023-02-01T11:17:45;18.65;;;4.45;;
27612;SDS011;15036;48.094;-1.690;2023-02-01T11:20:13;20.20;;;4.90;;
27612;SDS011;15036;48.094;-1.690;2023-02-01T11:23:02;22.70;;;4.93;;
27612;SDS011;15036;48.094;-1.690;2023-02-01T11:25:27;16.35;;;4.75;;
27612;SDS011;15036;48.094;-1.690;2023-02-01T11:27:54;16.92;;;4.28;;
27612;SDS011;15036;48.094;-1.690;2023-02-01T11:30:31;16.73;;;4.70;;
27612;SDS011;15036;48.094;-1.690;2023-02-01T11:33:00;21.58;;;4.90;;
27612;SDS011;15036;48.094;-1.690;2023-02-01T11:35:28;19.65;;;5.03;;
27612;SDS011;15036;48.094;-1.690;2023-02-01T11:37:55;21.92;;;4.60;;
27612;SDS011;15036;48.094;-1.690;2023-02-01T11:40:36;21.98;;;5.85;;
27612;SDS011;15036;48.094;-1.690;2023-02-01T11:45:59;19.90;;;4.22;;
27612;SDS011;15036;48.094;-1.690;2023-02-01T11:48:27;18.80;;;4.63;;
27612;SDS011;15036;48.094;-1.690;2023-02-01T11:54:08;17.38;;;4.03;;
27612;SDS011;15036;48.094;-1.690;2023-02-01T11:59:25;14.15;;;4.20;;
27612;SDS011;15036;48.094;-1.690;2023-02-01T12:07:33;16.27;;;3.95;;
27612;SDS011;15036;48.094;-1.690;2023-02-01T12:13:26;20.45;;;4.75;;
27612;SDS011;15036;48.094;-1.690;2023-02-01T12:15:51;17.52;;;4.60;;
27612;SDS011;15036;48.094;-1.690;2023-02-01T12:26:33;23.70;;;4.97;;
27612;SDS011;15036;48.094;-1.690;2023-02-01T12:45:54;14.57;;;3.67;;
27612;SDS011;15036;48.094;-1.690;2023-02-01T12:48:28;18.35;;;3.67;;
27612;SDS011;15036;48.094;-1.690;2023-02-01T12:50:59;23.58;;;4.22;;
27612;SDS011;15036;48.094;-1.690;2023-02-01T12:56:08;13.55;;;3.42;;
27612;SDS011;15036;48.094;-1.690;2023-02-01T12:58:45;16.77;;;3.40;;
27612;SDS011;15036;48.094;-1.690;2023-02-01T13:01:22;15.60;;;3.60;;
27612;SDS011;15036;48.094;-1.690;2023-02-01T13:03:55;22.23;;;3.80;;
27612;SDS011;15036;48.094;-1.690;2023-02-01T13:06:23;18.45;;;4.40;;
27612;SDS011;15036;48.094;-1.690;2023-02-01T13:08:56;20.10;;;4.43;;
27612;SDS011;15036;48.094;-1.690;2023-02-01T13:11:30;20.58;;;4.25;;
27612;SDS011;15036;48.094;-1.690;2023-02-01T13:14:03;21.52;;;4.15;;
27612;SDS011;15036;48.094;-1.690;2023-02-01T13:22:03;20.83;;;4.18;;
27612;SDS011;15036;48.094;-1.690;2023-02-01T13:27:14;18.90;;;4.38;;
27612;SDS011;15036;48.094;-1.690;2023-02-01T13:29:45;23.83;;;4.22;;
27612;SDS011;15036;48.094;-1.690;2023-02-01T13:32:23;18.02;;;4.90;;
27612;SDS011;15036;48.094;-1.690;2023-02-01T13:43:05;29.27;;;10.02;;
27612;SDS011;15036;48.094;-1.690;2023-02-01T13:45:36;23.98;;;5.95;;
27612;SDS011;15036;48.094;-1.690;2023-02-01T13:48:14;22.80;;;4.80;;
27612;SDS011;15036;48.094;-1.690;2023-02-01T13:50:55;20.10;;;4.85;;
27612;SDS011;15036;48.094;-1.690;2023-02-01T13:53:25;16.58;;;4.57;;
27612;SDS011;15036;48.094;-1.690;2023-02-01T13:56:01;25.15;;;7.70;;
27612;SDS011;15036;48.094;-1.690;2023-02-01T14:01:31;23.80;;;6.45;;
27612;SDS011;15036;48.094;-1.690;2023-02-01T14:03:43;25.80;;;7.20;;
27612;SDS011;15036;48.094;-1.690;2023-02-01T14:06:15;22.58;;;6.45;;
27612;SDS011;15036;48.094;-1.690;2023-02-01T14:16:44;21.70;;;5.38;;
27612;SDS011;15036;48.094;-1.690;2023-02-01T14:19:34;30.88;;;7.05;;
27612;SDS011;15036;48.094;-1.690;2023-02-01T14:22:01;21.52;;;4.90;;
27612;SDS011;15036;48.094;-1.690;2023-02-01T14:24:52;17.38;;;4.72;;
27612;SDS011;15036;48.094;-1.690;2023-02-01T14:27:26;23.15;;;5.32;;
27612;SDS011;15036;48.094;-1.690;2023-02-01T14:29:58;20.42;;;6.63;;
27612;SDS011;15036;48.094;-1.690;2023-02-01T14:32:38;16.77;;;5.03;;
27612;SDS011;15036;48.094;-1.690;2023-02-01T14:35:12;22.40;;;4.97;;
27612;SDS011;15036;48.094;-1.690;2023-02-01T14:37:44;24.75;;;6.65;;
27612;SDS011;15036;48.094;-1.690;2023-02-01T14:42:47;20.25;;;5.78;;
27612;SDS011;15036;48.094;-1.690;2023-02-01T14:47:44;18.15;;;4.70;;
27612;SDS011;15036;48.094;-1.690;2023-02-01T15:06:50;18.15;;;4.80;;
27612;SDS011;15036;48.094;-1.690;2023-02-01T15:14:34;16.42;;;4.38;;
27612;SDS011;15036;48.094;-1.690;2023-02-01T15:17:01;20.35;;;4.63;;
27612;SDS011;15036;48.094;-1.690;2023-02-01T16:37:27;21.73;;;6.38;;
27612;SDS011;15036;48.094;-1.690;2023-02-01T16:39:54;20.23;;;6.10;;
27612;SDS011;15036;48.094;-1.690;2023-02-01T16:42:19;26.17;;;5.97;;
27612;SDS011;15036;48.094;-1.690;2023-02-01T16:44:44;21.55;;;5.57;;
27612;SDS011;15036;48.094;-1.690;2023-02-01T16:47:19;21.88;;;5.53;;
27612;SDS011;15036;48.094;-1.690;2023-02-01T16:49:47;20.70;;;5.10;;
27612;SDS011;15036;48.094;-1.690;2023-02-01T16:52:19;18.60;;;4.88;;
27612;SDS011;15036;48.094;-1.690;2023-02-01T16:54:47;18.45;;;5.15;;
27612;SDS011;15036;48.094;-1.690;2023-02-01T16:57:13;22.00;;;5.03;;
27612;SDS011;15036;48.094;-1.690;2023-02-01T16:59:40;21.30;;;5.32;;
27612;SDS011;15036;48.094;-1.690;2023-02-01T17:02:25;23.10;;;5.47;;
27612;SDS011;15036;48.094;-1.690;2023-02-01T17:04:51;27.33;;;5.35;;
27612;SDS011;15036;48.094;-1.690;2023-02-01T17:07:17;23.40;;;5.00;;
27612;SDS011;15036;48.094;-1.690;2023-02-01T17:09:44;20.35;;;5.18;;
27612;SDS011;15036;48.094;-1.690;2023-02-01T17:12:29;24.10;;;6.40;;
27612;SDS011;15036;48.094;-1.690;2023-02-01T17:14:56;21.92;;;5.97;;
27612;SDS011;15036;48.094;-1.690;2023-02-01T17:17:23;19.00;;;5.22;;
27612;SDS011;15036;48.094;-1.690;2023-02-01T17:19:51;20.30;;;5.38;;
27612;SDS011;15036;48.094;-1.690;2023-02-01T17:22:21;25.45;;;5.75;;
27612;SDS011;15036;48.094;-1.690;2023-02-01T17:24:47;21.80;;;5.63;;
27612;SDS011;15036;48.094;-1.690;2023-02-01T17:27:14;21.70;;;5.82;;
27612;SDS011;15036;48.094;-1.690;2023-02-01T17:29:40;20.00;;;6.05;;
27612;SDS011;15036;48.094;-1.690;2023-02-01T17:32:09;29.55;;;9.60;;
27612;SDS011;15036;48.094;-1.690;2023-02-01T17:34:49;22.42;;;6.18;;
27612;SDS011;15036;48.094;-1.690;2023-02-01T17:37:22;27.08;;;7.72;;
27612;SDS011;15036;48.094;-1.690;2023-02-01T17:39:50;37.67;;;13.95;;
27612;SDS011;15036;48.094;-1.690;2023-02-01T17:42:18;25.40;;;8.88;;
27612;SDS011;15036;48.094;-1.690;2023-02-01T17:44:43;24.48;;;7.18;;
27612;SDS011;15036;48.094;-1.690;2023-02-01T17:47:09;22.38;;;6.57;;
27612;SDS011;15036;48.094;-1.690;2023-02-01T17:49:34;21.10;;;6.00;;
27612;SDS011;15036;48.094;-1.690;2023-02-01T17:52:00;20.02;;;5.53;;
27612;SDS011;15036;48.094;-1.690;2023-02-01T17:54:26;21.45;;;5.47;;
27612;SDS011;15036;48.094;-1.690;2023-02-01T17:56:51;24.55;;;5.25;;
27612;SDS011;15036;48.094;-1.690;2023-02-01T17:59:16;15.60;;;4.90;;
27612;SDS011;15036;48.094;-1.690;2023-02-01T18:01:42;23.67;;;5.45;;
27612;SDS011;15036;48.094;-1.690;2023-02-01T18:04:11;15.07;;;4.53;;
27612;SDS011;15036;48.094;-1.690;2023-02-01T18:06:43;20.20;;;5.00;;
27612;SDS011;15036;48.094;-1.690;2023-02-01T18:09:09;16.15;;;5.13;;
27612;SDS011;15036;48.094;-1.690;2023-02-01T18:11:34;20.15;;;5.50;;
27612;SDS011;15036;48.094;-1.690;2023-02-01T18:14:00;16.92;;;5.65;;
27612;SDS011;15036;48.094;-1.690;2023-02-01T18:16:28;16.95;;;5.40;;
27612;SDS011;15036;48.094;-1.690;2023-02-01T18:18:57;19.58;;;5.85;;
27612;SDS011;15036;48.094;-1.690;2023-02-01T18:21:34;23.75;;;6.32;;
27612;SDS011;15036;48.094;-1.690;2023-02-01T18:24:02;20.73;;;6.15;;
27612;SDS011;15036;48.094;-1.690;2023-02-01T18:26:27;22.63;;;5.95;;
27612;SDS011;15036;48.094;-1.690;2023-02-01T18:28:53;24.48;;;6.60;;
27612;SDS011;15036;48.094;-1.690;2023-02-01T18:31:25;20.33;;;6.10;;
27612;SDS011;15036;48.094;-1.690;2023-02-01T18:33:54;23.75;;;7.60;;
27612;SDS011;15036;48.094;-1.690;2023-02-01T18:36:20;23.80;;;7.75;;
27612;SDS011;15036;48.094;-1.690;2023-02-01T18:38:46;25.15;;;7.93;;